createdAt,value
2023-01-05T00:00:43.604Z,100944.41
2023-01-05T00:04:45.619Z,100943.53
2023-01-05T00:08:47.507Z,100941.19
2023-01-05T00:13:07.626Z,100947.31
2023-01-05T00:17:31.216Z,100930.81
2023-01-05T00:22:03.244Z,100929.03
2023-01-05T00:26:04.885Z,100910.97
2023-01-05T00:30:07.462Z,100914.38
2023-01-05T00:34:08.992Z,100887.88
2023-01-05T00:38:10.615Z,100883.63
2023-01-05T00:42:13.323Z,100888.75
2023-01-05T00:46:14.893Z,100887.94
2023-01-05T00:50:18.263Z,100884.41
2023-01-05T00:54:19.880Z,100886.19
2023-01-05T00:58:21.388Z,100889.75
2023-01-05T01:02:23.221Z,100895.13
2023-01-05T01:06:25.182Z,100906.44
2023-01-05T01:10:26.838Z,100893.81
2023-01-05T01:14:28.765Z,100892.34
2023-01-05T01:18:31.246Z,100894.06
2023-01-05T01:22:32.780Z,100878.00
2023-01-05T01:26:35.105Z,100887.25
2023-01-05T01:30:38.993Z,100892.47
2023-01-05T01:34:40.682Z,100893.25
2023-01-05T01:38:42.434Z,100899.13
2023-01-05T01:42:44.577Z,100901.06
2023-01-05T01:46:46.188Z,100907.25
2023-01-05T01:50:52.650Z,100893.03
2023-01-05T01:54:55.170Z,100899.00
2023-01-05T01:58:56.874Z,100911.75
2023-01-05T02:02:59.269Z,100917.06
2023-01-05T02:07:02.134Z,100925.00
2023-01-05T02:11:30.228Z,100903.75
2023-01-05T02:15:52.647Z,100902.78
2023-01-05T02:20:03.406Z,100905.38
2023-01-05T02:24:32.770Z,100898.50
2023-01-05T02:29:21.344Z,100890.91
2023-01-05T02:33:25.867Z,100885.66
2023-01-05T02:37:45.919Z,100869.31
2023-01-05T02:41:51.606Z,100865.94
2023-01-05T02:45:53.978Z,100872.94
2023-01-05T02:50:00.181Z,100862.81
2023-01-05T02:54:09.100Z,100868.94
2023-01-05T02:58:16.476Z,100862.28
2023-01-05T03:02:23.095Z,100855.59
2023-01-05T03:06:34.540Z,100854.91
2023-01-05T03:11:09.142Z,100863.41
2023-01-05T03:15:22.632Z,100865.16
2023-01-05T03:19:39.526Z,100861.22
2023-01-05T03:24:02.358Z,100863.09
2023-01-05T03:28:27.309Z,100860.63
2023-01-05T03:32:50.709Z,100877.81
2023-01-05T03:37:03.617Z,100891.63
2023-01-05T03:41:10.224Z,100891.50
2023-01-05T03:45:16.189Z,100896.44
2023-01-05T03:49:18.840Z,100919.41
2023-01-05T03:53:20.710Z,100921.47
2023-01-05T03:57:24.532Z,100932.09
2023-01-05T04:01:26.516Z,100932.72
2023-01-05T04:05:28.753Z,100919.97
2023-01-05T04:09:30.454Z,100927.19
2023-01-05T04:13:32.322Z,100930.94
2023-01-05T04:17:34.129Z,100935.50
2023-01-05T04:21:37.800Z,100947.50
2023-01-05T04:25:39.890Z,100944.22
2023-01-05T04:29:53.728Z,100961.44
2023-01-05T04:33:55.908Z,100945.28
2023-01-05T04:37:59.160Z,100951.38
2023-01-05T04:42:01.087Z,100963.31
2023-01-05T04:46:03.619Z,100982.03
2023-01-05T04:50:06.752Z,100970.00
2023-01-05T04:54:08.617Z,100980.72
2023-01-05T04:58:12.153Z,101000.81
2023-01-05T05:02:15.860Z,100998.25
2023-01-05T05:06:19.432Z,100989.75
2023-01-05T05:10:23.093Z,101022.28
2023-01-05T05:14:24.837Z,101019.91
2023-01-05T05:18:27.171Z,101037.91
2023-01-05T05:22:29.018Z,101055.34
2023-01-05T05:26:33.965Z,101055.56
2023-01-05T05:30:37.874Z,101057.38
2023-01-05T05:34:39.592Z,101057.22
2023-01-05T05:38:41.174Z,101067.63
2023-01-05T05:42:42.724Z,101070.31
2023-01-05T05:46:44.328Z,101073.88
2023-01-05T05:50:45.999Z,101084.88
2023-01-05T05:54:47.543Z,101089.06
2023-01-05T05:58:49.076Z,101100.16
2023-01-05T06:02:50.702Z,101101.16
2023-01-05T06:06:52.392Z,101106.41
2023-01-05T06:10:53.906Z,101115.13
2023-01-05T06:14:55.513Z,101117.00
2023-01-05T06:18:57.155Z,101113.69
2023-01-05T06:22:58.795Z,101123.81
2023-01-05T06:27:00.398Z,101126.19
2023-01-05T06:31:02.087Z,101123.38
2023-01-05T06:35:03.771Z,101118.94
2023-01-05T06:39:05.388Z,101108.69
2023-01-05T06:43:06.962Z,101116.38
2023-01-05T06:47:08.659Z,101118.94
2023-01-05T06:51:10.190Z,101113.03
2023-01-05T06:55:13.119Z,101120.59
2023-01-05T06:59:14.870Z,101126.75
2023-01-05T07:03:16.411Z,101120.69
2023-01-05T07:07:17.971Z,101125.94
2023-01-05T07:11:19.551Z,101124.38
2023-01-05T07:15:21.118Z,101123.44
2023-01-05T07:19:22.730Z,101124.97
2023-01-05T07:23:24.260Z,101129.94
2023-01-05T07:27:25.900Z,101133.25
2023-01-05T07:31:27.517Z,101134.94
2023-01-05T07:35:29.162Z,101130.84
2023-01-05T07:39:30.803Z,101129.03
2023-01-05T07:43:32.464Z,101132.44
2023-01-05T07:47:34.168Z,101133.00
2023-01-05T07:51:35.852Z,101141.56
2023-01-05T07:55:37.445Z,101150.38
2023-01-05T07:59:39.110Z,101168.47
2023-01-05T08:03:41.210Z,101172.81
2023-01-05T08:07:42.772Z,101168.69
2023-01-05T08:11:44.325Z,101167.97
2023-01-05T08:15:50.782Z,101179.41
2023-01-05T08:19:53.058Z,101188.97
2023-01-05T08:23:54.737Z,101189.84
2023-01-05T08:27:56.326Z,101204.63
2023-01-05T08:31:57.938Z,101204.44
2023-01-05T08:35:59.830Z,101199.97
2023-01-05T08:40:01.442Z,101210.44
2023-01-05T08:44:07.863Z,101207.13
2023-01-05T08:48:10.470Z,101213.97
2023-01-05T08:52:12.005Z,101222.28
2023-01-05T08:56:14.307Z,101228.47
2023-01-05T09:00:21.786Z,101226.97
2023-01-05T09:04:24.614Z,101222.66
2023-01-05T09:08:26.262Z,101232.31
2023-01-05T09:12:32.723Z,101229.88
2023-01-05T09:17:05.154Z,101227.53
2023-01-05T09:20:56.713Z,101226.69
2023-01-05T09:24:58.268Z,101220.94
2023-01-05T09:29:00.352Z,101216.81
2023-01-05T09:33:01.963Z,101238.50
2023-01-05T09:37:03.863Z,101240.38
2023-01-05T09:41:20.943Z,101251.66
2023-01-05T09:45:27.544Z,101244.97
2023-01-05T09:49:31.371Z,101246.66
2023-01-05T09:53:33.496Z,101246.94
2023-01-05T09:57:35.348Z,101242.50
2023-01-05T10:01:39.998Z,101246.38
2023-01-05T10:05:43.552Z,101252.91
2023-01-05T10:09:47.363Z,101258.16
2023-01-05T10:13:59.174Z,101246.03
2023-01-05T10:18:08.625Z,101237.44
2023-01-05T10:22:25.126Z,101233.59
2023-01-05T10:26:58.169Z,101241.53
2023-01-05T10:31:02.797Z,101247.56
2023-01-05T10:36:00.636Z,101241.59
2023-01-05T10:40:38.346Z,101249.44
2023-01-05T10:44:59.092Z,101245.84
2023-01-05T10:49:01.318Z,101250.56
2023-01-05T10:53:11.832Z,101252.41
2023-01-05T10:57:34.037Z,101256.53
2023-01-05T11:01:39.212Z,101261.91
2023-01-05T11:05:47.154Z,101260.28
2023-01-05T11:09:51.675Z,101258.28
2023-01-05T11:13:56.396Z,101257.41
2023-01-05T11:17:58.246Z,101257.41
2023-01-05T11:22:02.091Z,101260.88
2023-01-05T11:26:19.226Z,101251.94
2023-01-05T11:30:24.520Z,101256.38
2023-01-05T11:34:46.079Z,101250.16
2023-01-05T11:38:53.706Z,101244.63
2023-01-05T11:42:55.365Z,101242.47
2023-01-05T11:46:56.966Z,101251.53
2023-01-05T11:50:58.662Z,101251.25
2023-01-05T11:55:00.226Z,101246.09
2023-01-05T11:59:01.757Z,101246.09
2023-01-05T12:03:16.741Z,101254.13
2023-01-05T12:07:26.747Z,101259.78
2023-01-05T12:11:36.799Z,101246.41
2023-01-05T12:16:05.840Z,101248.31
2023-01-05T12:20:33.646Z,101242.41
2023-01-05T12:25:10.761Z,101247.47
2023-01-05T12:34:59.085Z,101256.47
2023-01-05T12:39:32.369Z,101258.06
2023-01-05T12:44:01.989Z,101256.25
2023-01-05T12:48:31.827Z,101274.91
2023-01-05T12:52:44.418Z,101260.44
2023-01-05T12:56:51.342Z,101273.28
2023-01-05T13:00:57.499Z,101264.63
2023-01-05T13:05:21.465Z,101264.91
2023-01-05T13:09:27.853Z,101256.28
2023-01-05T13:13:35.572Z,101259.75
2023-01-05T13:17:44.462Z,101252.84
2023-01-05T13:21:47.927Z,101253.22
2023-01-05T13:26:03.050Z,101256.13
2023-01-05T13:30:06.431Z,101256.13
2023-01-05T13:34:16.730Z,101259.53
2023-01-05T13:39:00.192Z,101253.34
2023-01-05T13:43:21.288Z,101265.06
2023-01-05T13:47:45.176Z,101276.28
2023-01-05T13:51:52.735Z,101276.38
2023-01-05T13:56:09.242Z,101267.72
2023-01-05T14:00:28.248Z,101278.66
2023-01-05T14:04:34.003Z,101264.06
2023-01-05T14:08:39.527Z,101259.75
2023-01-05T14:12:49.640Z,101269.94
2023-01-05T14:16:52.176Z,101266.53
2023-01-05T14:20:56.334Z,101274.34
2023-01-05T14:24:59.087Z,101274.00
2023-01-05T14:29:00.598Z,101277.38
2023-01-05T14:33:06.172Z,101276.31
2023-01-05T14:37:22.451Z,101272.81
2023-01-05T14:41:27.422Z,101281.84
2023-01-05T14:45:36.513Z,101287.09
2023-01-05T14:49:51.262Z,101291.09
2023-01-05T14:53:54.938Z,101294.09
2023-01-05T14:57:59.206Z,101294.38
2023-01-05T15:02:08.604Z,101302.88
2023-01-05T15:06:25.563Z,101298.44
2023-01-05T15:10:29.968Z,101303.50
2023-01-05T15:15:06.113Z,101310.28
2023-01-05T15:19:33.621Z,101297.88
2023-01-05T15:23:53.163Z,101309.03
2023-01-05T15:28:13.335Z,101308.84
2023-01-05T15:32:28.708Z,101307.66
2023-01-05T15:36:34.329Z,101311.06
2023-01-05T15:40:36.039Z,101306.00
2023-01-05T15:44:40.297Z,101303.25
2023-01-05T15:48:45.053Z,101307.47
2023-01-05T15:52:55.578Z,101300.66
2023-01-05T15:56:58.986Z,101307.41
2023-01-05T16:01:10.815Z,101308.97
2023-01-05T16:05:16.794Z,101324.28
2023-01-05T16:09:34.933Z,101322.47
2023-01-05T16:13:44.603Z,101325.81
2023-01-05T16:17:46.664Z,101319.69
2023-01-05T16:22:03.458Z,101315.25
2023-01-05T16:26:05.674Z,101307.47
2023-01-05T16:30:39.754Z,101310.78
2023-01-05T16:34:41.408Z,101307.19
2023-01-05T16:38:42.976Z,101310.63
2023-01-05T16:42:50.479Z,101324.34
2023-01-05T16:47:05.903Z,101326.31
2023-01-05T16:51:33.538Z,101318.56
2023-01-05T16:55:36.953Z,101315.72
2023-01-05T16:59:50.128Z,101316.75
2023-01-05T17:03:52.298Z,101314.16
2023-01-05T17:08:19.447Z,101308.91
2023-01-05T17:12:21.184Z,101314.69
2023-01-05T17:16:22.903Z,101317.88
2023-01-05T17:20:29.268Z,101310.97
2023-01-05T17:24:31.036Z,101308.28
2023-01-05T17:28:32.710Z,101308.22
2023-01-05T17:32:34.224Z,101296.06
2023-01-05T17:36:35.964Z,101296.81
2023-01-05T17:40:38.008Z,101309.56
2023-01-05T17:44:39.753Z,101313.84
2023-01-05T17:48:41.301Z,101306.81
2023-01-05T17:52:43.293Z,101303.31
2023-01-05T17:56:44.906Z,101302.09
2023-01-05T18:04:56.424Z,101297.16
2023-01-05T18:08:57.984Z,101292.09
2023-01-05T18:12:59.542Z,101299.66
2023-01-05T18:17:01.169Z,101305.41
2023-01-05T18:21:03.915Z,101300.78
2023-01-05T18:29:12.802Z,101294.88
2023-01-05T18:33:14.366Z,101294.78
2023-01-05T18:37:22.835Z,101296.69
2023-01-05T18:41:25.232Z,101288.25
2023-01-05T18:45:38.465Z,101287.34
2023-01-05T18:49:40.475Z,101282.22
2023-01-05T18:53:42.062Z,101284.00
2023-01-05T18:57:43.587Z,101289.78
2023-01-05T19:01:45.230Z,101293.44
2023-01-05T19:05:46.862Z,101292.78
2023-01-05T19:09:48.368Z,101288.50
2023-01-05T19:13:50.657Z,101276.47
2023-01-05T19:17:53.450Z,101278.16
2023-01-05T19:21:55.187Z,101281.59
2023-01-05T19:26:04.716Z,101274.06
2023-01-05T19:30:07.222Z,101278.38
2023-01-05T19:34:12.566Z,101266.41
2023-01-05T19:38:14.131Z,101271.53
2023-01-05T19:42:15.644Z,101272.25
2023-01-05T19:46:18.994Z,101265.94
2023-01-05T19:50:20.706Z,101260.69
2023-01-05T19:54:25.043Z,101270.00
2023-01-05T19:58:26.617Z,101268.16
2023-01-05T20:02:28.376Z,101275.94
2023-01-05T20:06:34.012Z,101278.38
2023-01-05T20:10:37.798Z,101275.06
2023-01-05T20:14:39.331Z,101277.56
2023-01-05T20:18:40.917Z,101276.94
2023-01-05T20:22:42.439Z,101265.00
2023-01-05T20:26:45.808Z,101272.69
2023-01-05T20:30:47.387Z,101261.50
2023-01-05T20:34:59.183Z,101270.81
2023-01-05T20:39:05.871Z,101270.81
2023-01-05T20:43:07.413Z,101269.25
2023-01-05T20:47:10.178Z,101276.09
2023-01-05T20:51:13.923Z,101268.47
2023-01-05T20:55:18.060Z,101264.84
2023-01-05T20:59:24.115Z,101257.84
2023-01-05T21:03:25.708Z,101259.41
2023-01-05T21:07:27.359Z,101268.72
2023-01-05T21:11:29.639Z,101268.78
2023-01-05T21:15:31.201Z,101262.78
2023-01-05T21:19:33.881Z,101265.44
2023-01-05T21:23:35.468Z,101270.00
2023-01-05T21:27:37.422Z,101258.22
2023-01-05T21:31:39.062Z,101262.94
2023-01-05T21:35:40.828Z,101258.34
2023-01-05T21:39:42.384Z,101259.75
2023-01-05T21:43:43.900Z,101257.72
2023-01-05T21:47:51.516Z,101250.75
2023-01-05T21:52:11.535Z,101254.38
2023-01-05T21:56:26.706Z,101250.28
2023-01-05T22:00:28.528Z,101245.03
2023-01-05T22:04:30.180Z,101247.53
2023-01-05T22:08:31.843Z,101235.69
2023-01-05T22:12:33.401Z,101233.28
2023-01-05T22:16:35.409Z,101230.94
2023-01-05T22:20:37.078Z,101227.03
2023-01-05T22:24:38.736Z,101237.69
2023-01-05T22:28:42.438Z,101241.00
2023-01-05T22:32:43.967Z,101232.22
2023-01-05T22:36:45.884Z,101227.03
2023-01-05T22:40:53.467Z,101222.69
2023-01-05T22:44:55.023Z,101221.81
2023-01-05T22:48:57.679Z,101222.88
2023-01-05T22:52:59.216Z,101220.47
2023-01-05T22:57:00.852Z,101221.34
2023-01-05T23:01:13.946Z,101228.94
2023-01-05T23:05:16.285Z,101225.66
2023-01-05T23:09:18.638Z,101225.66
2023-01-05T23:13:20.206Z,101226.47
2023-01-05T23:17:21.758Z,101232.34
2023-01-05T23:21:24.780Z,101221.97
2023-01-05T23:25:26.326Z,101210.94
2023-01-05T23:29:28.664Z,101209.25
2023-01-05T23:33:34.354Z,101189.53
2023-01-05T23:37:35.899Z,101195.69
2023-01-05T23:41:37.575Z,101193.16
2023-01-05T23:45:42.823Z,101186.50
2023-01-05T23:49:44.612Z,101184.00
2023-01-05T23:53:49.368Z,101185.75
2023-01-05T23:57:50.943Z,101176.41
